sensor_id;sensor_type;location;lat;lon;timestamp;P1;durP1;ratioP1;P2;durP2;ratioP2
9102;SDS011;4587;51.434;6.788;2023-12-20T00:01:45;16.53;;;13.10;;
9102;SDS011;4587;51.434;6.788;2023-12-20T00:04:11;18.63;;;12.83;;
9102;SDS011;4587;51.434;6.788;2023-12-20T00:06:36;15.70;;;11.80;;
9102;SDS011;4587;51.434;6.788;2023-12-20T00:09:02;23.17;;;13.07;;
9102;SDS011;4587;51.434;6.788;2023-12-20T00:11:27;15.43;;;12.10;;
9102;SDS011;4587;51.434;6.788;2023-12-20T00:13:53;16.03;;;12.63;;
9102;SDS011;4587;51.434;6.788;2023-12-20T00:16:18;17.23;;;12.27;;
9102;SDS011;4587;51.434;6.788;2023-12-20T00:18:44;17.90;;;12.70;;
9102;SDS011;4587;51.434;6.788;2023-12-20T00:21:09;15.13;;;11.87;;
9102;SDS011;4587;51.434;6.788;2023-12-20T00:23:35;18.50;;;12.67;;
9102;SDS011;4587;51.434;6.788;2023-12-20T00:26:00;17.77;;;11.70;;
9102;SDS011;4587;51.434;6.788;2023-12-20T00:28:26;16.37;;;12.20;;
9102;SDS011;4587;51.434;6.788;2023-12-20T00:30:52;15.50;;;10.93;;
9102;SDS011;4587;51.434;6.788;2023-12-20T00:33:17;16.80;;;11.10;;
9102;SDS011;4587;51.434;6.788;2023-12-20T00:35:43;16.07;;;10.40;;
9102;SDS011;4587;51.434;6.788;2023-12-20T00:38:09;17.67;;;10.67;;
9102;SDS011;4587;51.434;6.788;2023-12-20T00:40:36;15.13;;;10.17;;
9102;SDS011;4587;51.434;6.788;2023-12-20T00:43:01;16.93;;;9.90;;
9102;SDS011;4587;51.434;6.788;2023-12-20T00:45:27;16.90;;;9.37;;
9102;SDS011;4587;51.434;6.788;2023-12-20T00:47:52;16.93;;;9.70;;
9102;SDS011;4587;51.434;6.788;2023-12-20T00:50:18;13.90;;;9.10;;
9102;SDS011;4587;51.434;6.788;2023-12-20T00:52:43;14.00;;;8.67;;
9102;SDS011;4587;51.434;6.788;2023-12-20T00:55:09;13.53;;;8.30;;
9102;SDS011;4587;51.434;6.788;2023-12-20T00:57:35;14.97;;;9.00;;
9102;SDS011;4587;51.434;6.788;2023-12-20T01:00:00;13.00;;;8.17;;
9102;SDS011;4587;51.434;6.788;2023-12-20T01:02:26;15.33;;;8.67;;
9102;SDS011;4587;51.434;6.788;2023-12-20T01:04:51;14.27;;;8.73;;
9102;SDS011;4587;51.434;6.788;2023-12-20T01:07:17;13.23;;;9.27;;
9102;SDS011;4587;51.434;6.788;2023-12-20T01:09:43;17.37;;;8.93;;
9102;SDS011;4587;51.434;6.788;2023-12-20T01:12:09;16.90;;;9.40;;
9102;SDS011;4587;51.434;6.788;2023-12-20T01:14:35;15.67;;;9.37;;
9102;SDS011;4587;51.434;6.788;2023-12-20T01:17:01;16.63;;;10.17;;
9102;SDS011;4587;51.434;6.788;2023-12-20T01:19:27;14.10;;;8.80;;
9102;SDS011;4587;51.434;6.788;2023-12-20T01:21:53;14.33;;;9.20;;
9102;SDS011;4587;51.434;6.788;2023-12-20T01:24:18;17.57;;;11.13;;
9102;SDS011;4587;51.434;6.788;2023-12-20T01:26:44;15.27;;;9.87;;
9102;SDS011;4587;51.434;6.788;2023-12-20T01:29:09;18.33;;;9.73;;
9102;SDS011;4587;51.434;6.788;2023-12-20T01:31:35;15.43;;;9.70;;
9102;SDS011;4587;51.434;6.788;2023-12-20T01:34:00;14.73;;;9.37;;
9102;SDS011;4587;51.434;6.788;2023-12-20T01:36:26;19.43;;;9.83;;
9102;SDS011;4587;51.434;6.788;2023-12-20T01:38:52;17.50;;;8.43;;
9102;SDS011;4587;51.434;6.788;2023-12-20T01:41:17;13.37;;;8.10;;
9102;SDS011;4587;51.434;6.788;2023-12-20T01:43:43;16.80;;;8.30;;
9102;SDS011;4587;51.434;6.788;2023-12-20T01:46:08;14.23;;;8.17;;
9102;SDS011;4587;51.434;6.788;2023-12-20T01:48:34;14.57;;;7.90;;
9102;SDS011;4587;51.434;6.788;2023-12-20T01:51:00;16.17;;;7.23;;
9102;SDS011;4587;51.434;6.788;2023-12-20T01:53:27;22.37;;;8.37;;
9102;SDS011;4587;51.434;6.788;2023-12-20T01:55:54;14.13;;;7.40;;
9102;SDS011;4587;51.434;6.788;2023-12-20T01:58:21;13.50;;;7.63;;
9102;SDS011;4587;51.434;6.788;2023-12-20T02:00:48;19.93;;;7.70;;
9102;SDS011;4587;51.434;6.788;2023-12-20T02:03:14;17.53;;;8.07;;
9102;SDS011;4587;51.434;6.788;2023-12-20T02:05:39;16.67;;;8.10;;
9102;SDS011;4587;51.434;6.788;2023-12-20T02:08:06;15.63;;;7.27;;
9102;SDS011;4587;51.434;6.788;2023-12-20T02:10:32;12.83;;;7.73;;
9102;SDS011;4587;51.434;6.788;2023-12-20T02:12:57;17.37;;;8.30;;
9102;SDS011;4587;51.434;6.788;2023-12-20T02:15:23;14.67;;;7.73;;
9102;SDS011;4587;51.434;6.788;2023-12-20T02:17:49;14.37;;;7.63;;
9102;SDS011;4587;51.434;6.788;2023-12-20T02:20:15;16.63;;;8.17;;
9102;SDS011;4587;51.434;6.788;2023-12-20T02:22:41;17.43;;;7.70;;
9102;SDS011;4587;51.434;6.788;2023-12-20T02:25:06;14.40;;;7.97;;
9102;SDS011;4587;51.434;6.788;2023-12-20T02:27:32;14.50;;;7.97;;
9102;SDS011;4587;51.434;6.788;2023-12-20T02:29:58;12.57;;;7.43;;
9102;SDS011;4587;51.434;6.788;2023-12-20T02:32:24;15.60;;;8.33;;
9102;SDS011;4587;51.434;6.788;2023-12-20T02:34:54;15.07;;;7.10;;
9102;SDS011;4587;51.434;6.788;2023-12-20T02:37:20;17.60;;;6.97;;
9102;SDS011;4587;51.434;6.788;2023-12-20T02:39:46;14.37;;;7.13;;
9102;SDS011;4587;51.434;6.788;2023-12-20T02:42:11;12.90;;;6.67;;
9102;SDS011;4587;51.434;6.788;2023-12-20T02:44:37;17.40;;;7.07;;
9102;SDS011;4587;51.434;6.788;2023-12-20T02:47:03;15.27;;;6.73;;
9102;SDS011;4587;51.434;6.788;2023-12-20T02:49:30;16.40;;;6.87;;
9102;SDS011;4587;51.434;6.788;2023-12-20T02:51:55;18.20;;;7.67;;
9102;SDS011;4587;51.434;6.788;2023-12-20T02:54:21;20.70;;;7.53;;
9102;SDS011;4587;51.434;6.788;2023-12-20T02:56:46;14.80;;;5.70;;
9102;SDS011;4587;51.434;6.788;2023-12-20T02:59:15;14.57;;;6.10;;
9102;SDS011;4587;51.434;6.788;2023-12-20T03:01:45;19.50;;;6.80;;
9102;SDS011;4587;51.434;6.788;2023-12-20T03:04:11;17.77;;;5.60;;
9102;SDS011;4587;51.434;6.788;2023-12-20T03:06:37;14.47;;;5.50;;
9102;SDS011;4587;51.434;6.788;2023-12-20T03:09:03;14.63;;;4.97;;
9102;SDS011;4587;51.434;6.788;2023-12-20T03:11:29;13.03;;;5.10;;
9102;SDS011;4587;51.434;6.788;2023-12-20T03:13:55;15.60;;;5.40;;
9102;SDS011;4587;51.434;6.788;2023-12-20T03:16:21;17.50;;;4.93;;
9102;SDS011;4587;51.434;6.788;2023-12-20T03:18:47;14.53;;;4.87;;
9102;SDS011;4587;51.434;6.788;2023-12-20T03:21:13;12.87;;;4.43;;
9102;SDS011;4587;51.434;6.788;2023-12-20T03:23:38;13.30;;;4.70;;
9102;SDS011;4587;51.434;6.788;2023-12-20T03:26:06;16.53;;;4.37;;
9102;SDS011;4587;51.434;6.788;2023-12-20T03:28:33;14.33;;;4.57;;
9102;SDS011;4587;51.434;6.788;2023-12-20T03:30:58;10.33;;;3.87;;
9102;SDS011;4587;51.434;6.788;2023-12-20T03:33:24;10.80;;;4.17;;
9102;SDS011;4587;51.434;6.788;2023-12-20T03:35:49;14.10;;;3.70;;
9102;SDS011;4587;51.434;6.788;2023-12-20T03:38:15;16.23;;;4.00;;
9102;SDS011;4587;51.434;6.788;2023-12-20T03:40:41;12.87;;;3.70;;
9102;SDS011;4587;51.434;6.788;2023-12-20T03:43:06;17.63;;;4.07;;
9102;SDS011;4587;51.434;6.788;2023-12-20T03:45:32;14.70;;;3.80;;
9102;SDS011;4587;51.434;6.788;2023-12-20T03:47:58;15.63;;;4.03;;
9102;SDS011;4587;51.434;6.788;2023-12-20T03:50:24;14.03;;;3.57;;
9102;SDS011;4587;51.434;6.788;2023-12-20T03:52:50;17.50;;;3.87;;
9102;SDS011;4587;51.434;6.788;2023-12-20T03:55:15;16.67;;;3.97;;
9102;SDS011;4587;51.434;6.788;2023-12-20T03:57:41;14.43;;;3.50;;
9102;SDS011;4587;51.434;6.788;2023-12-20T04:00:07;12.07;;;3.77;;
9102;SDS011;4587;51.434;6.788;2023-12-20T04:02:36;16.70;;;3.53;;
9102;SDS011;4587;51.434;6.788;2023-12-20T04:05:06;13.33;;;3.03;;
9102;SDS011;4587;51.434;6.788;2023-12-20T04:07:32;14.20;;;4.07;;
9102;SDS011;4587;51.434;6.788;2023-12-20T04:09:57;13.97;;;3.10;;
9102;SDS011;4587;51.434;6.788;2023-12-20T04:12:23;13.10;;;3.17;;
9102;SDS011;4587;51.434;6.788;2023-12-20T04:14:49;15.87;;;3.33;;
9102;SDS011;4587;51.434;6.788;2023-12-20T04:17:15;13.57;;;3.40;;
9102;SDS011;4587;51.434;6.788;2023-12-20T04:19:41;13.63;;;4.10;;
9102;SDS011;4587;51.434;6.788;2023-12-20T04:22:07;10.83;;;2.80;;
9102;SDS011;4587;51.434;6.788;2023-12-20T04:24:33;16.43;;;3.50;;
9102;SDS011;4587;51.434;6.788;2023-12-20T04:26:59;12.33;;;3.50;;
9102;SDS011;4587;51.434;6.788;2023-12-20T04:29:24;16.20;;;3.57;;
9102;SDS011;4587;51.434;6.788;2023-12-20T04:31:51;17.73;;;3.77;;
9102;SDS011;4587;51.434;6.788;2023-12-20T04:34:17;13.90;;;3.30;;
9102;SDS011;4587;51.434;6.788;2023-12-20T04:36:43;14.10;;;3.80;;
9102;SDS011;4587;51.434;6.788;2023-12-20T04:39:08;12.93;;;4.23;;
9102;SDS011;4587;51.434;6.788;2023-12-20T04:41:34;17.50;;;4.10;;
9102;SDS011;4587;51.434;6.788;2023-12-20T04:44:00;12.57;;;3.83;;
9102;SDS011;4587;51.434;6.788;2023-12-20T04:46:26;12.20;;;4.17;;
9102;SDS011;4587;51.434;6.788;2023-12-20T04:48:51;13.50;;;4.60;;
9102;SDS011;4587;51.434;6.788;2023-12-20T04:51:17;11.83;;;4.17;;
9102;SDS011;4587;51.434;6.788;2023-12-20T04:53:42;18.60;;;4.80;;
9102;SDS011;4587;51.434;6.788;2023-12-20T04:56:08;13.60;;;4.70;;
9102;SDS011;4587;51.434;6.788;2023-12-20T04:58:33;14.70;;;4.77;;
9102;SDS011;4587;51.434;6.788;2023-12-20T05:00:59;12.13;;;4.53;;
9102;SDS011;4587;51.434;6.788;2023-12-20T05:03:25;16.43;;;5.03;;
9102;SDS011;4587;51.434;6.788;2023-12-20T05:05:50;15.00;;;5.10;;
9102;SDS011;4587;51.434;6.788;2023-12-20T05:08:16;16.60;;;5.03;;
9102;SDS011;4587;51.434;6.788;2023-12-20T05:10:41;16.70;;;4.97;;
9102;SDS011;4587;51.434;6.788;2023-12-20T05:13:07;13.13;;;4.50;;
9102;SDS011;4587;51.434;6.788;2023-12-20T05:15:32;16.00;;;5.30;;
9102;SDS011;4587;51.434;6.788;2023-12-20T05:17:58;13.23;;;5.43;;
9102;SDS011;4587;51.434;6.788;2023-12-20T05:20:24;16.73;;;5.27;;
9102;SDS011;4587;51.434;6.788;2023-12-20T05:22:49;16.93;;;5.63;;
9102;SDS011;4587;51.434;6.788;2023-12-20T05:25:15;19.87;;;6.37;;
9102;SDS011;4587;51.434;6.788;2023-12-20T05:27:40;16.23;;;5.43;;
9102;SDS011;4587;51.434;6.788;2023-12-20T05:30:06;16.60;;;5.40;;
9102;SDS011;4587;51.434;6.788;2023-12-20T05:32:32;25.10;;;6.30;;
9102;SDS011;4587;51.434;6.788;2023-12-20T05:34:57;19.63;;;6.03;;
9102;SDS011;4587;51.434;6.788;2023-12-20T05:37:23;12.57;;;5.00;;
9102;SDS011;4587;51.434;6.788;2023-12-20T05:39:48;14.33;;;5.27;;
9102;SDS011;4587;51.434;6.788;2023-12-20T05:42:14;19.00;;;5.20;;
9102;SDS011;4587;51.434;6.788;2023-12-20T05:44:40;19.23;;;5.70;;
9102;SDS011;4587;51.434;6.788;2023-12-20T05:47:05;20.13;;;5.73;;
9102;SDS011;4587;51.434;6.788;2023-12-20T05:49:31;16.33;;;5.67;;
9102;SDS011;4587;51.434;6.788;2023-12-20T05:51:57;18.90;;;6.10;;
9102;SDS011;4587;51.434;6.788;2023-12-20T05:54:22;18.27;;;6.00;;
9102;SDS011;4587;51.434;6.788;2023-12-20T05:56:48;16.47;;;6.27;;
9102;SDS011;4587;51.434;6.788;2023-12-20T05:59:13;19.70;;;6.00;;
9102;SDS011;4587;51.434;6.788;2023-12-20T06:01:39;16.43;;;5.47;;
9102;SDS011;4587;51.434;6.788;2023-12-20T06:04:04;13.50;;;5.13;;
9102;SDS011;4587;51.434;6.788;2023-12-20T06:06:30;17.97;;;6.00;;
9102;SDS011;4587;51.434;6.788;2023-12-20T06:08:56;14.77;;;5.57;;
9102;SDS011;4587;51.434;6.788;2023-12-20T06:11:21;22.03;;;5.80;;
9102;SDS011;4587;51.434;6.788;2023-12-20T06:13:47;19.30;;;6.57;;
9102;SDS011;4587;51.434;6.788;2023-12-20T06:16:14;23.40;;;6.30;;
9102;SDS011;4587;51.434;6.788;2023-12-20T06:18:40;20.70;;;6.40;;
9102;SDS011;4587;51.434;6.788;2023-12-20T06:21:05;18.47;;;6.03;;
9102;SDS011;4587;51.434;6.788;2023-12-20T06:23:32;17.03;;;6.07;;
9102;SDS011;4587;51.434;6.788;2023-12-20T06:25:57;21.33;;;5.77;;
9102;SDS011;4587;51.434;6.788;2023-12-20T06:28:23;17.67;;;5.97;;
9102;SDS011;4587;51.434;6.788;2023-12-20T06:30:49;15.20;;;6.00;;
9102;SDS011;4587;51.434;6.788;2023-12-20T06:33:14;17.07;;;5.90;;
9102;SDS011;4587;51.434;6.788;2023-12-20T06:35:40;20.80;;;6.27;;
9102;SDS011;4587;51.434;6.788;2023-12-20T06:38:06;15.77;;;6.17;;
9102;SDS011;4587;51.434;6.788;2023-12-20T06:40:31;20.50;;;6.07;;
9102;SDS011;4587;51.434;6.788;2023-12-20T06:42:57;22.30;;;6.73;;
9102;SDS011;4587;51.434;6.788;2023-12-20T06:45:24;20.97;;;6.73;;
9102;SDS011;4587;51.434;6.788;2023-12-20T06:47:50;20.60;;;6.17;;
9102;SDS011;4587;51.434;6.788;2023-12-20T06:50:15;19.03;;;6.47;;
9102;SDS011;4587;51.434;6.788;2023-12-20T06:52:41;16.93;;;6.47;;
9102;SDS011;4587;51.434;6.788;2023-12-20T06:55:07;18.30;;;6.30;;
9102;SDS011;4587;51.434;6.788;2023-12-20T06:57:32;21.33;;;6.30;;
9102;SDS011;4587;51.434;6.788;2023-12-20T06:59:58;15.83;;;6.30;;
9102;SDS011;4587;51.434;6.788;2023-12-20T07:02:23;16.83;;;6.00;;
9102;SDS011;4587;51.434;6.788;2023-12-20T07:04:49;18.57;;;5.00;;
9102;SDS011;4587;51.434;6.788;2023-12-20T07:07:14;20.90;;;5.87;;
9102;SDS011;4587;51.434;6.788;2023-12-20T07:09:40;18.63;;;5.90;;
9102;SDS011;4587;51.434;6.788;2023-12-20T07:12:07;18.30;;;5.50;;
9102;SDS011;4587;51.434;6.788;2023-12-20T07:14:34;16.50;;;5.10;;
9102;SDS011;4587;51.434;6.788;2023-12-20T07:16:59;15.93;;;5.27;;
9102;SDS011;4587;51.434;6.788;2023-12-20T07:19:25;14.40;;;4.83;;
9102;SDS011;4587;51.434;6.788;2023-12-20T07:21:50;19.03;;;5.53;;
9102;SDS011;4587;51.434;6.788;2023-12-20T07:24:16;16.13;;;5.17;;
9102;SDS011;4587;51.434;6.788;2023-12-20T07:26:41;18.07;;;5.53;;
9102;SDS011;4587;51.434;6.788;2023-12-20T07:29:08;18.40;;;5.10;;
9102;SDS011;4587;51.434;6.788;2023-12-20T07:31:33;16.50;;;4.90;;
9102;SDS011;4587;51.434;6.788;2023-12-20T07:33:59;17.47;;;4.97;;
9102;SDS011;4587;51.434;6.788;2023-12-20T07:36:25;16.37;;;5.20;;
9102;SDS011;4587;51.434;6.788;2023-12-20T07:38:50;18.63;;;4.93;;
9102;SDS011;4587;51.434;6.788;2023-12-20T07:41:16;13.33;;;5.03;;
9102;SDS011;4587;51.434;6.788;2023-12-20T07:43:42;14.40;;;5.03;;
9102;SDS011;4587;51.434;6.788;2023-12-20T07:46:08;20.60;;;5.27;;
9102;SDS011;4587;51.434;6.788;2023-12-20T07:48:37;18.73;;;5.23;;
9102;SDS011;4587;51.434;6.788;2023-12-20T07:51:03;13.10;;;4.80;;
9102;SDS011;4587;51.434;6.788;2023-12-20T07:53:29;16.00;;;4.73;;
9102;SDS011;4587;51.434;6.788;2023-12-20T07:55:55;19.30;;;5.47;;
9102;SDS011;4587;51.434;6.788;2023-12-20T07:58:20;15.33;;;4.60;;
9102;SDS011;4587;51.434;6.788;2023-12-20T08:00:46;15.07;;;5.13;;
9102;SDS011;4587;51.434;6.788;2023-12-20T08:03:12;19.60;;;5.50;;
9102;SDS011;4587;51.434;6.788;2023-12-20T08:05:38;18.23;;;5.30;;
9102;SDS011;4587;51.434;6.788;2023-12-20T08:08:05;15.83;;;4.97;;
9102;SDS011;4587;51.434;6.788;2023-12-20T08:10:31;17.73;;;5.13;;
9102;SDS011;4587;51.434;6.788;2023-12-20T08:12:57;20.40;;;6.10;;
9102;SDS011;4587;51.434;6.788;2023-12-20T08:15:22;19.00;;;5.83;;
9102;SDS011;4587;51.434;6.788;2023-12-20T08:17:48;18.17;;;6.00;;
9102;SDS011;4587;51.434;6.788;2023-12-20T08:20:15;17.53;;;5.83;;
9102;SDS011;4587;51.434;6.788;2023-12-20T08:22:41;18.20;;;5.93;;
9102;SDS011;4587;51.434;6.788;2023-12-20T08:25:07;19.07;;;6.63;;
9102;SDS011;4587;51.434;6.788;2023-12-20T08:27:33;18.23;;;5.37;;
9102;SDS011;4587;51.434;6.788;2023-12-20T08:30:02;14.10;;;6.00;;
9102;SDS011;4587;51.434;6.788;2023-12-20T08:32:28;17.97;;;6.20;;
9102;SDS011;4587;51.434;6.788;2023-12-20T08:34:54;21.37;;;6.17;;
9102;SDS011;4587;51.434;6.788;2023-12-20T08:37:19;18.17;;;5.90;;
9102;SDS011;4587;51.434;6.788;2023-12-20T08:39:45;14.97;;;5.03;;
9102;SDS011;4587;51.434;6.788;2023-12-20T08:42:10;17.27;;;5.30;;
9102;SDS011;4587;51.434;6.788;2023-12-20T08:44:36;27.93;;;5.60;;
9102;SDS011;4587;51.434;6.788;2023-12-20T08:47:01;18.77;;;4.90;;
9102;SDS011;4587;51.434;6.788;2023-12-20T08:49:27;16.80;;;5.20;;
9102;SDS011;4587;51.434;6.788;2023-12-20T08:51:53;17.23;;;5.00;;
9102;SDS011;4587;51.434;6.788;2023-12-20T08:54:18;18.43;;;4.60;;
9102;SDS011;4587;51.434;6.788;2023-12-20T08:56:44;15.60;;;4.57;;
9102;SDS011;4587;51.434;6.788;2023-12-20T08:59:11;16.23;;;4.30;;
9102;SDS011;4587;51.434;6.788;2023-12-20T09:01:37;15.93;;;4.70;;
9102;SDS011;4587;51.434;6.788;2023-12-20T09:04:02;13.70;;;4.10;;
9102;SDS011;4587;51.434;6.788;2023-12-20T09:06:28;13.50;;;4.20;;
9102;SDS011;4587;51.434;6.788;2023-12-20T09:08:53;17.53;;;4.03;;
9102;SDS011;4587;51.434;6.788;2023-12-20T09:11:19;21.57;;;4.47;;
9102;SDS011;4587;51.434;6.788;2023-12-20T09:13:45;21.80;;;4.73;;
9102;SDS011;4587;51.434;6.788;2023-12-20T09:16:10;14.57;;;4.43;;
9102;SDS011;4587;51.434;6.788;2023-12-20T09:18:36;19.47;;;4.77;;
9102;SDS011;4587;51.434;6.788;2023-12-20T09:21:01;14.50;;;4.27;;
9102;SDS011;4587;51.434;6.788;2023-12-20T09:23:27;17.33;;;4.63;;
9102;SDS011;4587;51.434;6.788;2023-12-20T09:25:53;15.80;;;4.70;;
9102;SDS011;4587;51.434;6.788;2023-12-20T09:28:18;15.30;;;4.80;;
9102;SDS011;4587;51.434;6.788;2023-12-20T09:30:44;19.27;;;4.93;;
9102;SDS011;4587;51.434;6.788;2023-12-20T09:33:11;19.67;;;4.47;;
9102;SDS011;4587;51.434;6.788;2023-12-20T09:35:36;14.53;;;4.40;;
9102;SDS011;4587;51.434;6.788;2023-12-20T09:38:02;16.93;;;4.70;;
9102;SDS011;4587;51.434;6.788;2023-12-20T09:40:28;17.90;;;5.03;;
9102;SDS011;4587;51.434;6.788;2023-12-20T09:43:10;16.67;;;4.53;;
9102;SDS011;4587;51.434;6.788;2023-12-20T09:45:38;14.80;;;4.33;;
9102;SDS011;4587;51.434;6.788;2023-12-20T09:48:05;18.27;;;4.47;;
9102;SDS011;4587;51.434;6.788;2023-12-20T09:50:32;18.83;;;5.00;;
9102;SDS011;4587;51.434;6.788;2023-12-20T09:52:58;18.23;;;4.83;;
9102;SDS011;4587;51.434;6.788;2023-12-20T09:55:27;17.90;;;4.40;;
9102;SDS011;4587;51.434;6.788;2023-12-20T09:57:53;13.63;;;3.87;;
9102;SDS011;4587;51.434;6.788;2023-12-20T10:00:19;17.97;;;5.17;;
9102;SDS011;4587;51.434;6.788;2023-12-20T10:05:32;12.90;;;4.67;;
9102;SDS011;4587;51.434;6.788;2023-12-20T10:07:58;14.57;;;4.50;;
9102;SDS011;4587;51.434;6.788;2023-12-20T10:10:25;14.00;;;4.03;;
9102;SDS011;4587;51.434;6.788;2023-12-20T10:13:04;20.43;;;4.60;;
9102;SDS011;4587;51.434;6.788;2023-12-20T10:15:35;15.30;;;4.10;;
9102;SDS011;4587;51.434;6.788;2023-12-20T10:18:02;15.73;;;4.30;;
9102;SDS011;4587;51.434;6.788;2023-12-20T10:20:29;16.43;;;5.00;;
9102;SDS011;4587;51.434;6.788;2023-12-20T10:22:55;15.20;;;4.23;;
9102;SDS011;4587;51.434;6.788;2023-12-20T10:25:22;17.20;;;4.23;;
9102;SDS011;4587;51.434;6.788;2023-12-20T10:27:49;16.67;;;4.40;;
9102;SDS011;4587;51.434;6.788;2023-12-20T10:30:15;20.53;;;5.53;;
9102;SDS011;4587;51.434;6.788;2023-12-20T10:32:40;19.50;;;5.07;;
9102;SDS011;4587;51.434;6.788;2023-12-20T10:35:06;16.97;;;4.93;;
9102;SDS011;4587;51.434;6.788;2023-12-20T10:37:36;16.90;;;4.50;;
9102;SDS011;4587;51.434;6.788;2023-12-20T10:40:03;17.30;;;4.67;;
9102;SDS011;4587;51.434;6.788;2023-12-20T10:42:30;15.17;;;4.17;;
9102;SDS011;4587;51.434;6.788;2023-12-20T10:44:58;13.97;;;4.13;;
9102;SDS011;4587;51.434;6.788;2023-12-20T10:47:24;15.53;;;4.50;;
9102;SDS011;4587;51.434;6.788;2023-12-20T10:49:51;12.67;;;4.73;;
9102;SDS011;4587;51.434;6.788;2023-12-20T10:52:18;14.57;;;4.67;;
9102;SDS011;4587;51.434;6.788;2023-12-20T10:54:48;12.73;;;4.27;;
9102;SDS011;4587;51.434;6.788;2023-12-20T10:57:13;16.00;;;4.77;;
9102;SDS011;4587;51.434;6.788;2023-12-20T10:59:41;16.93;;;4.50;;
9102;SDS011;4587;51.434;6.788;2023-12-20T11:02:10;13.80;;;4.53;;
9102;SDS011;4587;51.434;6.788;2023-12-20T11:07:39;18.10;;;4.40;;
9102;SDS011;4587;51.434;6.788;2023-12-20T11:10:18;17.70;;;4.23;;
9102;SDS011;4587;51.434;6.788;2023-12-20T11:13:08;16.57;;;4.13;;
9102;SDS011;4587;51.434;6.788;2023-12-20T11:15:48;15.63;;;4.47;;
9102;SDS011;4587;51.434;6.788;2023-12-20T11:18:16;18.60;;;4.63;;
9102;SDS011;4587;51.434;6.788;2023-12-20T11:20:42;12.03;;;4.20;;
9102;SDS011;4587;51.434;6.788;2023-12-20T11:23:08;15.63;;;4.47;;
9102;SDS011;4587;51.434;6.788;2023-12-20T11:25:53;19.17;;;5.27;;
9102;SDS011;4587;51.434;6.788;2023-12-20T11:28:24;18.30;;;4.73;;
9102;SDS011;4587;51.434;6.788;2023-12-20T11:30:51;13.40;;;4.30;;
9102;SDS011;4587;51.434;6.788;2023-12-20T11:33:25;14.67;;;4.60;;
9102;SDS011;4587;51.434;6.788;2023-12-20T11:35:52;14.60;;;5.07;;
9102;SDS011;4587;51.434;6.788;2023-12-20T11:38:20;21.67;;;5.67;;
9102;SDS011;4587;51.434;6.788;2023-12-20T11:40:48;13.80;;;4.60;;
9102;SDS011;4587;51.434;6.788;2023-12-20T11:48:37;11.87;;;4.30;;
9102;SDS011;4587;51.434;6.788;2023-12-20T11:51:11;17.23;;;4.80;;
9102;SDS011;4587;51.434;6.788;2023-12-20T11:53:37;13.97;;;4.57;;
9102;SDS011;4587;51.434;6.788;2023-12-20T11:56:04;13.87;;;5.07;;
9102;SDS011;4587;51.434;6.788;2023-12-20T11:58:33;14.50;;;4.40;;
9102;SDS011;4587;51.434;6.788;2023-12-20T12:00:59;13.37;;;4.67;;
9102;SDS011;4587;51.434;6.788;2023-12-20T12:03:25;18.77;;;4.80;;
9102;SDS011;4587;51.434;6.788;2023-12-20T12:05:50;16.07;;;4.50;;
9102;SDS011;4587;51.434;6.788;2023-12-20T12:08:16;13.67;;;4.60;;
9102;SDS011;4587;51.434;6.788;2023-12-20T12:10:42;16.93;;;4.93;;
9102;SDS011;4587;51.434;6.788;2023-12-20T12:13:10;15.77;;;5.23;;
9102;SDS011;4587;51.434;6.788;2023-12-20T12:15:36;17.00;;;4.80;;
9102;SDS011;4587;51.434;6.788;2023-12-20T12:18:02;16.03;;;4.40;;
9102;SDS011;4587;51.434;6.788;2023-12-20T12:20:28;18.63;;;5.00;;
9102;SDS011;4587;51.434;6.788;2023-12-20T12:23:03;15.90;;;4.70;;
9102;SDS011;4587;51.434;6.788;2023-12-20T12:25:30;14.90;;;4.70;;
9102;SDS011;4587;51.434;6.788;2023-12-20T12:27:57;13.40;;;4.23;;
9102;SDS011;4587;51.434;6.788;2023-12-20T12:30:23;14.07;;;4.50;;
9102;SDS011;4587;51.434;6.788;2023-12-20T12:32:50;17.50;;;4.60;;
9102;SDS011;4587;51.434;6.788;2023-12-20T12:35:19;15.13;;;4.20;;
9102;SDS011;4587;51.434;6.788;2023-12-20T12:37:45;13.73;;;3.97;;
9102;SDS011;4587;51.434;6.788;2023-12-20T12:40:11;16.40;;;4.80;;
9102;SDS011;4587;51.434;6.788;2023-12-20T12:42:38;17.70;;;4.50;;
9102;SDS011;4587;51.434;6.788;2023-12-20T12:45:05;11.80;;;3.53;;
9102;SDS011;4587;51.434;6.788;2023-12-20T12:47:32;11.17;;;4.40;;
9102;SDS011;4587;51.434;6.788;2023-12-20T12:49:58;13.80;;;4.87;;
9102;SDS011;4587;51.434;6.788;2023-12-20T12:52:24;16.57;;;4.87;;
9102;SDS011;4587;51.434;6.788;2023-12-20T12:54:49;10.27;;;4.73;;
9102;SDS011;4587;51.434;6.788;2023-12-20T12:57:15;13.97;;;4.67;;
9102;SDS011;4587;51.434;6.788;2023-12-20T12:59:42;11.50;;;4.43;;
9102;SDS011;4587;51.434;6.788;2023-12-20T13:02:09;10.37;;;4.30;;
9102;SDS011;4587;51.434;6.788;2023-12-20T13:04:34;14.10;;;4.67;;
9102;SDS011;4587;51.434;6.788;2023-12-20T13:07:00;15.73;;;5.00;;
9102;SDS011;4587;51.434;6.788;2023-12-20T13:09:26;13.73;;;4.50;;
9102;SDS011;4587;51.434;6.788;2023-12-20T13:11:51;16.37;;;4.67;;
9102;SDS011;4587;51.434;6.788;2023-12-20T13:14:17;16.07;;;5.13;;
9102;SDS011;4587;51.434;6.788;2023-12-20T13:16:42;13.60;;;5.00;;
9102;SDS011;4587;51.434;6.788;2023-12-20T13:19:09;16.40;;;5.20;;
9102;SDS011;4587;51.434;6.788;2023-12-20T13:21:35;16.13;;;5.40;;
9102;SDS011;4587;51.434;6.788;2023-12-20T13:24:01;13.10;;;5.13;;
9102;SDS011;4587;51.434;6.788;2023-12-20T13:26:26;15.43;;;5.40;;
9102;SDS011;4587;51.434;6.788;2023-12-20T13:28:53;13.87;;;5.17;;
9102;SDS011;4587;51.434;6.788;2023-12-20T13:31:19;16.53;;;5.37;;
9102;SDS011;4587;51.434;6.788;2023-12-20T13:33:46;11.57;;;5.00;;
9102;SDS011;4587;51.434;6.788;2023-12-20T13:36:12;11.03;;;4.67;;
9102;SDS011;4587;51.434;6.788;2023-12-20T13:38:37;16.47;;;6.80;;
9102;SDS011;4587;51.434;6.788;2023-12-20T13:41:03;14.43;;;5.60;;
9102;SDS011;4587;51.434;6.788;2023-12-20T13:43:30;15.83;;;5.80;;
9102;SDS011;4587;51.434;6.788;2023-12-20T13:45:57;16.70;;;5.90;;
9102;SDS011;4587;51.434;6.788;2023-12-20T13:48:23;17.10;;;5.60;;
9102;SDS011;4587;51.434;6.788;2023-12-20T13:50:49;12.93;;;6.13;;
9102;SDS011;4587;51.434;6.788;2023-12-20T13:53:14;13.47;;;5.73;;
9102;SDS011;4587;51.434;6.788;2023-12-20T13:55:40;11.63;;;5.67;;
9102;SDS011;4587;51.434;6.788;2023-12-20T13:58:05;20.30;;;6.03;;
9102;SDS011;4587;51.434;6.788;2023-12-20T14:00:31;11.97;;;5.67;;
9102;SDS011;4587;51.434;6.788;2023-12-20T14:02:56;13.13;;;6.20;;
9102;SDS011;4587;51.434;6.788;2023-12-20T14:05:23;14.20;;;6.07;;
9102;SDS011;4587;51.434;6.788;2023-12-20T14:07:49;15.57;;;6.10;;
9102;SDS011;4587;51.434;6.788;2023-12-20T14:10:15;14.67;;;6.30;;
9102;SDS011;4587;51.434;6.788;2023-12-20T14:12:41;14.40;;;6.73;;
9102;SDS011;4587;51.434;6.788;2023-12-20T14:15:07;14.20;;;6.03;;
9102;SDS011;4587;51.434;6.788;2023-12-20T14:17:36;12.57;;;6.67;;
9102;SDS011;4587;51.434;6.788;2023-12-20T14:20:03;14.37;;;6.73;;
9102;SDS011;4587;51.434;6.788;2023-12-20T14:22:31;14.80;;;6.90;;
9102;SDS011;4587;51.434;6.788;2023-12-20T14:24:57;16.40;;;6.73;;
9102;SDS011;4587;51.434;6.788;2023-12-20T14:27:22;14.87;;;6.43;;
9102;SDS011;4587;51.434;6.788;2023-12-20T14:29:49;15.83;;;6.90;;
9102;SDS011;4587;51.434;6.788;2023-12-20T14:32:15;16.37;;;6.80;;
9102;SDS011;4587;51.434;6.788;2023-12-20T14:34:41;14.80;;;5.80;;
9102;SDS011;4587;51.434;6.788;2023-12-20T14:37:06;17.57;;;7.00;;
9102;SDS011;4587;51.434;6.788;2023-12-20T14:39:32;17.60;;;5.93;;
9102;SDS011;4587;51.434;6.788;2023-12-20T14:41:58;13.40;;;5.67;;
9102;SDS011;4587;51.434;6.788;2023-12-20T14:44:23;12.30;;;5.50;;
9102;SDS011;4587;51.434;6.788;2023-12-20T14:46:49;14.50;;;5.90;;
9102;SDS011;4587;51.434;6.788;2023-12-20T14:49:15;15.77;;;5.83;;
9102;SDS011;4587;51.434;6.788;2023-12-20T14:51:43;16.87;;;5.70;;
9102;SDS011;4587;51.434;6.788;2023-12-20T14:54:09;12.07;;;5.70;;
9102;SDS011;4587;51.434;6.788;2023-12-20T14:56:35;16.53;;;6.00;;
9102;SDS011;4587;51.434;6.788;2023-12-20T14:59:01;12.30;;;5.77;;
9102;SDS011;4587;51.434;6.788;2023-12-20T15:01:26;15.30;;;6.03;;
9102;SDS011;4587;51.434;6.788;2023-12-20T15:03:52;13.77;;;5.60;;
9102;SDS011;4587;51.434;6.788;2023-12-20T15:06:17;15.13;;;5.87;;